sensor_id;sensor_type;location;lat;lon;timestamp;temperature;humidity
60495;DHT22;46342;49.046;11.920;2023-11-22T00:01:58;7.40;66.00
60495;DHT22;46342;49.046;11.920;2023-11-22T00:04:24;7.40;66.00
60495;DHT22;46342;49.046;11.920;2023-11-22T00:06:50;7.40;65.80
60495;DHT22;46342;49.046;11.920;2023-11-22T00:09:15;7.40;65.90
60495;DHT22;46342;49.046;11.920;2023-11-22T00:11:41;7.30;65.90
60495;DHT22;46342;49.046;11.920;2023-11-22T00:14:06;7.30;65.90
60495;DHT22;46342;49.046;11.920;2023-11-22T00:16:32;7.30;66.00
60495;DHT22;46342;49.046;11.920;2023-11-22T00:18:57;7.30;66.00
60495;DHT22;46342;49.046;11.920;2023-11-22T00:21:23;7.30;65.80
60495;DHT22;46342;49.046;11.920;2023-11-22T00:23:50;7.30;65.80
60495;DHT22;46342;49.046;11.920;2023-11-22T00:26:15;7.30;65.80
60495;DHT22;46342;49.046;11.920;2023-11-22T00:28:41;7.20;65.80
60495;DHT22;46342;49.046;11.920;2023-11-22T00:31:06;7.20;65.90
60495;DHT22;46342;49.046;11.920;2023-11-22T00:33:32;7.20;65.80
60495;DHT22;46342;49.046;11.920;2023-11-22T00:35:57;7.20;66.00
60495;DHT22;46342;49.046;11.920;2023-11-22T00:38:24;7.20;66.20
60495;DHT22;46342;49.046;11.920;2023-11-22T00:40:49;7.20;66.20
60495;DHT22;46342;49.046;11.920;2023-11-22T00:43:18;7.20;66.20
60495;DHT22;46342;49.046;11.920;2023-11-22T00:45:44;7.20;66.00
60495;DHT22;46342;49.046;11.920;2023-11-22T00:48:10;7.20;66.00
60495;DHT22;46342;49.046;11.920;2023-11-22T00:50:36;7.20;66.00
60495;DHT22;46342;49.046;11.920;2023-11-22T00:53:01;7.20;65.80
60495;DHT22;46342;49.046;11.920;2023-11-22T00:55:27;7.20;65.70
60495;DHT22;46342;49.046;11.920;2023-11-22T00:57:52;7.20;66.60
60495;DHT22;46342;49.046;11.920;2023-11-22T01:00:18;7.20;65.40
60495;DHT22;46342;49.046;11.920;2023-11-22T01:02:43;7.10;65.50
60495;DHT22;46342;49.046;11.920;2023-11-22T01:05:09;7.10;65.50
60495;DHT22;46342;49.046;11.920;2023-11-22T01:07:38;7.10;65.40
60495;DHT22;46342;49.046;11.920;2023-11-22T01:10:04;7.00;65.30
60495;DHT22;46342;49.046;11.920;2023-11-22T01:12:31;7.00;65.20
60495;DHT22;46342;49.046;11.920;2023-11-22T01:14:57;7.00;65.10
60495;DHT22;46342;49.046;11.920;2023-11-22T01:17:22;7.00;65.10
60495;DHT22;46342;49.046;11.920;2023-11-22T01:19:49;7.00;65.00
60495;DHT22;46342;49.046;11.920;2023-11-22T01:22:16;6.90;64.80
60495;DHT22;46342;49.046;11.920;2023-11-22T01:24:42;6.90;64.80
60495;DHT22;46342;49.046;11.920;2023-11-22T01:27:08;6.90;64.80
60495;DHT22;46342;49.046;11.920;2023-11-22T01:29:33;6.90;64.70
60495;DHT22;46342;49.046;11.920;2023-11-22T01:32:00;6.80;64.60
60495;DHT22;46342;49.046;11.920;2023-11-22T01:34:26;6.90;64.80
60495;DHT22;46342;49.046;11.920;2023-11-22T01:36:51;6.80;64.60
60495;DHT22;46342;49.046;11.920;2023-11-22T01:39:17;6.80;64.70
60495;DHT22;46342;49.046;11.920;2023-11-22T01:41:46;6.80;64.70
60495;DHT22;46342;49.046;11.920;2023-11-22T01:44:15;6.80;64.70
60495;DHT22;46342;49.046;11.920;2023-11-22T01:46:41;6.80;64.80
60495;DHT22;46342;49.046;11.920;2023-11-22T01:49:09;6.70;65.70
60495;DHT22;46342;49.046;11.920;2023-11-22T01:51:37;6.70;64.70
60495;DHT22;46342;49.046;11.920;2023-11-22T01:54:02;6.70;64.70
60495;DHT22;46342;49.046;11.920;2023-11-22T01:56:28;6.70;64.70
60495;DHT22;46342;49.046;11.920;2023-11-22T01:58:57;6.70;64.60
60495;DHT22;46342;49.046;11.920;2023-11-22T02:01:26;6.70;64.60
60495;DHT22;46342;49.046;11.920;2023-11-22T02:03:52;6.70;64.70
60495;DHT22;46342;49.046;11.920;2023-11-22T02:06:19;6.60;64.70
60495;DHT22;46342;49.046;11.920;2023-11-22T02:08:47;6.70;64.90
60495;DHT22;46342;49.046;11.920;2023-11-22T02:11:12;6.60;64.70
60495;DHT22;46342;49.046;11.920;2023-11-22T02:13:38;6.60;65.50
60495;DHT22;46342;49.046;11.920;2023-11-22T02:16:04;6.60;64.60
60495;DHT22;46342;49.046;11.920;2023-11-22T02:18:30;6.60;64.70
60495;DHT22;46342;49.046;11.920;2023-11-22T02:20:56;6.60;64.90
60495;DHT22;46342;49.046;11.920;2023-11-22T02:23:22;6.50;64.80
60495;DHT22;46342;49.046;11.920;2023-11-22T02:25:47;6.50;64.80
60495;DHT22;46342;49.046;11.920;2023-11-22T02:28:13;6.50;64.80
60495;DHT22;46342;49.046;11.920;2023-11-22T02:30:39;6.50;64.80
60495;DHT22;46342;49.046;11.920;2023-11-22T02:33:05;6.50;64.70
60495;DHT22;46342;49.046;11.920;2023-11-22T02:35:31;6.50;64.70
60495;DHT22;46342;49.046;11.920;2023-11-22T02:37:58;6.50;64.70
60495;DHT22;46342;49.046;11.920;2023-11-22T02:40:25;6.50;64.60
60495;DHT22;46342;49.046;11.920;2023-11-22T02:42:51;6.50;64.60
60495;DHT22;46342;49.046;11.920;2023-11-22T02:45:20;6.50;64.60
60495;DHT22;46342;49.046;11.920;2023-11-22T02:47:48;6.50;64.40
60495;DHT22;46342;49.046;11.920;2023-11-22T02:50:17;6.50;64.40
60495;DHT22;46342;49.046;11.920;2023-11-22T02:52:43;6.40;64.30
60495;DHT22;46342;49.046;11.920;2023-11-22T02:55:09;6.40;64.30
60495;DHT22;46342;49.046;11.920;2023-11-22T02:57:38;6.40;64.40
60495;DHT22;46342;49.046;11.920;2023-11-22T03:00:07;6.40;64.40
60495;DHT22;46342;49.046;11.920;2023-11-22T03:02:34;6.30;64.40
60495;DHT22;46342;49.046;11.920;2023-11-22T03:05:00;6.30;64.40
60495;DHT22;46342;49.046;11.920;2023-11-22T03:07:26;6.30;64.50
60495;DHT22;46342;49.046;11.920;2023-11-22T03:09:52;6.30;64.40
60495;DHT22;46342;49.046;11.920;2023-11-22T03:12:18;6.30;64.50
60495;DHT22;46342;49.046;11.920;2023-11-22T03:14:48;6.30;64.60
60495;DHT22;46342;49.046;11.920;2023-11-22T03:17:15;6.20;64.50
60495;DHT22;46342;49.046;11.920;2023-11-22T03:19:40;6.30;64.60
60495;DHT22;46342;49.046;11.920;2023-11-22T03:22:06;6.20;64.50
60495;DHT22;46342;49.046;11.920;2023-11-22T03:24:32;6.20;64.50
60495;DHT22;46342;49.046;11.920;2023-11-22T03:27:02;6.20;64.70
60495;DHT22;46342;49.046;11.920;2023-11-22T03:29:28;6.20;64.80
60495;DHT22;46342;49.046;11.920;2023-11-22T03:31:54;6.20;64.50
60495;DHT22;46342;49.046;11.920;2023-11-22T03:34:20;6.20;64.60
60495;DHT22;46342;49.046;11.920;2023-11-22T03:36:46;6.20;64.80
60495;DHT22;46342;49.046;11.920;2023-11-22T03:39:12;6.20;64.60
60495;DHT22;46342;49.046;11.920;2023-11-22T03:41:40;6.20;64.60
60495;DHT22;46342;49.046;11.920;2023-11-22T03:44:05;6.20;64.50
60495;DHT22;46342;49.046;11.920;2023-11-22T03:46:37;6.20;64.40
60495;DHT22;46342;49.046;11.920;2023-11-22T03:49:04;6.20;64.40
60495;DHT22;46342;49.046;11.920;2023-11-22T03:51:32;6.20;64.50
60495;DHT22;46342;49.046;11.920;2023-11-22T03:53:58;6.20;64.60
60495;DHT22;46342;49.046;11.920;2023-11-22T03:56:23;6.10;64.50
60495;DHT22;46342;49.046;11.920;2023-11-22T03:58:49;6.10;64.50
60495;DHT22;46342;49.046;11.920;2023-11-22T04:01:15;6.20;64.60
60495;DHT22;46342;49.046;11.920;2023-11-22T04:03:42;6.20;64.60
60495;DHT22;46342;49.046;11.920;2023-11-22T04:06:07;6.10;64.50
60495;DHT22;46342;49.046;11.920;2023-11-22T04:08:33;6.10;64.70
60495;DHT22;46342;49.046;11.920;2023-11-22T04:10:59;6.10;64.50
60495;DHT22;46342;49.046;11.920;2023-11-22T04:13:24;6.10;64.40
60495;DHT22;46342;49.046;11.920;2023-11-22T04:15:50;6.10;64.50
60495;DHT22;46342;49.046;11.920;2023-11-22T04:18:16;6.10;64.50
60495;DHT22;46342;49.046;11.920;2023-11-22T04:20:41;6.10;64.50
60495;DHT22;46342;49.046;11.920;2023-11-22T04:23:07;6.10;64.60
60495;DHT22;46342;49.046;11.920;2023-11-22T04:25:36;6.10;64.50
60495;DHT22;46342;49.046;11.920;2023-11-22T04:28:02;6.10;64.50
60495;DHT22;46342;49.046;11.920;2023-11-22T04:30:28;6.10;64.60
60495;DHT22;46342;49.046;11.920;2023-11-22T04:32:53;6.10;64.60
60495;DHT22;46342;49.046;11.920;2023-11-22T04:35:19;6.10;64.60
60495;DHT22;46342;49.046;11.920;2023-11-22T04:37:44;6.00;65.00
60495;DHT22;46342;49.046;11.920;2023-11-22T04:40:12;6.00;64.50
60495;DHT22;46342;49.046;11.920;2023-11-22T04:42:39;6.00;64.30
60495;DHT22;46342;49.046;11.920;2023-11-22T04:45:05;6.00;64.40
60495;DHT22;46342;49.046;11.920;2023-11-22T04:47:31;6.00;64.40
60495;DHT22;46342;49.046;11.920;2023-11-22T04:49:57;6.00;64.20
60495;DHT22;46342;49.046;11.920;2023-11-22T04:52:23;6.00;64.30
60495;DHT22;46342;49.046;11.920;2023-11-22T04:54:48;5.90;64.20
60495;DHT22;46342;49.046;11.920;2023-11-22T04:57:14;5.90;64.20
60495;DHT22;46342;49.046;11.920;2023-11-22T04:59:40;5.90;64.10
60495;DHT22;46342;49.046;11.920;2023-11-22T05:02:06;5.90;64.10
60495;DHT22;46342;49.046;11.920;2023-11-22T05:04:32;5.90;63.90
60495;DHT22;46342;49.046;11.920;2023-11-22T05:06:58;5.90;64.00
60495;DHT22;46342;49.046;11.920;2023-11-22T05:09:24;5.80;63.90
60495;DHT22;46342;49.046;11.920;2023-11-22T05:11:49;5.80;64.00
60495;DHT22;46342;49.046;11.920;2023-11-22T05:14:15;5.80;64.10
60495;DHT22;46342;49.046;11.920;2023-11-22T05:16:40;5.80;64.10
60495;DHT22;46342;49.046;11.920;2023-11-22T05:19:06;5.80;64.10
60495;DHT22;46342;49.046;11.920;2023-11-22T05:21:32;5.80;64.10
60495;DHT22;46342;49.046;11.920;2023-11-22T05:23:58;5.70;64.10
60495;DHT22;46342;49.046;11.920;2023-11-22T05:26:24;5.70;64.10
60495;DHT22;46342;49.046;11.920;2023-11-22T05:28:50;5.70;64.00
60495;DHT22;46342;49.046;11.920;2023-11-22T05:31:15;5.70;64.00
60495;DHT22;46342;49.046;11.920;2023-11-22T05:33:41;5.70;64.00
60495;DHT22;46342;49.046;11.920;2023-11-22T05:36:07;5.70;64.20
60495;DHT22;46342;49.046;11.920;2023-11-22T05:38:34;5.70;64.10
60495;DHT22;46342;49.046;11.920;2023-11-22T05:41:00;5.70;64.00
60495;DHT22;46342;49.046;11.920;2023-11-22T05:43:26;5.70;64.10
60495;DHT22;46342;49.046;11.920;2023-11-22T05:45:53;5.70;64.10
60495;DHT22;46342;49.046;11.920;2023-11-22T05:48:18;5.70;64.00
60495;DHT22;46342;49.046;11.920;2023-11-22T05:50:45;5.60;63.80
60495;DHT22;46342;49.046;11.920;2023-11-22T05:53:11;5.60;63.90
60495;DHT22;46342;49.046;11.920;2023-11-22T05:55:36;5.60;64.00
60495;DHT22;46342;49.046;11.920;2023-11-22T05:58:03;5.60;63.90
60495;DHT22;46342;49.046;11.920;2023-11-22T06:00:29;5.60;63.90
60495;DHT22;46342;49.046;11.920;2023-11-22T06:02:55;5.60;63.90
60495;DHT22;46342;49.046;11.920;2023-11-22T06:05:21;5.60;63.90
60495;DHT22;46342;49.046;11.920;2023-11-22T06:07:47;5.60;63.70
60495;DHT22;46342;49.046;11.920;2023-11-22T06:10:16;5.50;63.60
60495;DHT22;46342;49.046;11.920;2023-11-22T06:12:42;5.50;63.70
60495;DHT22;46342;49.046;11.920;2023-11-22T06:15:09;5.60;63.90
60495;DHT22;46342;49.046;11.920;2023-11-22T06:17:35;5.50;63.90
60495;DHT22;46342;49.046;11.920;2023-11-22T06:20:00;5.50;63.90
60495;DHT22;46342;49.046;11.920;2023-11-22T06:22:26;5.50;63.80
60495;DHT22;46342;49.046;11.920;2023-11-22T06:24:51;5.50;63.80
60495;DHT22;46342;49.046;11.920;2023-11-22T06:27:17;5.50;63.80
60495;DHT22;46342;49.046;11.920;2023-11-22T06:29:42;5.50;64.00
60495;DHT22;46342;49.046;11.920;2023-11-22T06:32:12;5.50;64.80
60495;DHT22;46342;49.046;11.920;2023-11-22T06:34:37;5.50;64.00
60495;DHT22;46342;49.046;11.920;2023-11-22T06:37:03;5.50;63.90
60495;DHT22;46342;49.046;11.920;2023-11-22T06:39:29;5.40;63.70
60495;DHT22;46342;49.046;11.920;2023-11-22T06:41:55;5.50;64.00
60495;DHT22;46342;49.046;11.920;2023-11-22T06:44:21;5.40;63.90
60495;DHT22;46342;49.046;11.920;2023-11-22T06:46:46;5.40;63.90
60495;DHT22;46342;49.046;11.920;2023-11-22T06:49:12;5.40;63.80
60495;DHT22;46342;49.046;11.920;2023-11-22T06:51:37;5.40;63.60
60495;DHT22;46342;49.046;11.920;2023-11-22T06:54:03;5.40;63.80
60495;DHT22;46342;49.046;11.920;2023-11-22T06:56:29;5.40;64.00
60495;DHT22;46342;49.046;11.920;2023-11-22T06:58:54;5.40;63.90
60495;DHT22;46342;49.046;11.920;2023-11-22T07:01:23;5.40;63.80
60495;DHT22;46342;49.046;11.920;2023-11-22T07:03:51;5.40;63.60
60495;DHT22;46342;49.046;11.920;2023-11-22T07:06:17;5.30;63.60
60495;DHT22;46342;49.046;11.920;2023-11-22T07:08:44;5.40;63.80
60495;DHT22;46342;49.046;11.920;2023-11-22T07:11:10;5.30;63.80
60495;DHT22;46342;49.046;11.920;2023-11-22T07:13:36;5.40;63.90
60495;DHT22;46342;49.046;11.920;2023-11-22T07:16:04;5.40;64.00
60495;DHT22;46342;49.046;11.920;2023-11-22T07:18:30;5.30;63.90
60495;DHT22;46342;49.046;11.920;2023-11-22T07:20:57;5.40;64.10
60495;DHT22;46342;49.046;11.920;2023-11-22T07:23:23;5.40;64.00
60495;DHT22;46342;49.046;11.920;2023-11-22T07:25:52;5.40;64.00
60495;DHT22;46342;49.046;11.920;2023-11-22T07:28:18;5.40;63.90
60495;DHT22;46342;49.046;11.920;2023-11-22T07:30:44;5.40;64.00
60495;DHT22;46342;49.046;11.920;2023-11-22T07:33:09;5.40;64.10
60495;DHT22;46342;49.046;11.920;2023-11-22T07:35:36;5.40;64.80
60495;DHT22;46342;49.046;11.920;2023-11-22T07:38:02;5.40;64.80
60495;DHT22;46342;49.046;11.920;2023-11-22T07:40:29;5.40;64.80
60495;DHT22;46342;49.046;11.920;2023-11-22T07:42:54;5.40;63.90
60495;DHT22;46342;49.046;11.920;2023-11-22T07:45:20;5.40;63.90
60495;DHT22;46342;49.046;11.920;2023-11-22T07:47:46;5.40;63.90
60495;DHT22;46342;49.046;11.920;2023-11-22T07:50:12;5.40;64.00
60495;DHT22;46342;49.046;11.920;2023-11-22T07:52:38;5.40;63.90
60495;DHT22;46342;49.046;11.920;2023-11-22T07:55:05;5.40;63.90
60495;DHT22;46342;49.046;11.920;2023-11-22T07:57:34;5.40;64.00
60495;DHT22;46342;49.046;11.920;2023-11-22T07:59:59;5.40;63.80
60495;DHT22;46342;49.046;11.920;2023-11-22T08:02:26;5.40;63.70
60495;DHT22;46342;49.046;11.920;2023-11-22T08:04:52;5.40;63.70
60495;DHT22;46342;49.046;11.920;2023-11-22T08:07:18;5.40;63.80
60495;DHT22;46342;49.046;11.920;2023-11-22T08:09:44;5.40;64.00
60495;DHT22;46342;49.046;11.920;2023-11-22T08:12:09;5.40;64.00
60495;DHT22;46342;49.046;11.920;2023-11-22T08:14:37;5.40;64.00
60495;DHT22;46342;49.046;11.920;2023-11-22T08:17:02;5.40;63.90
60495;DHT22;46342;49.046;11.920;2023-11-22T08:19:29;5.50;64.00
60495;DHT22;46342;49.046;11.920;2023-11-22T08:21:54;5.50;64.00
60495;DHT22;46342;49.046;11.920;2023-11-22T08:24:20;5.50;64.00
60495;DHT22;46342;49.046;11.920;2023-11-22T08:26:46;5.50;63.90
60495;DHT22;46342;49.046;11.920;2023-11-22T08:29:11;5.50;63.90
60495;DHT22;46342;49.046;11.920;2023-11-22T08:31:37;5.50;64.00
60495;DHT22;46342;49.046;11.920;2023-11-22T08:34:03;5.50;64.00
60495;DHT22;46342;49.046;11.920;2023-11-22T08:36:33;5.50;64.00
60495;DHT22;46342;49.046;11.920;2023-11-22T08:39:00;5.50;63.90
60495;DHT22;46342;49.046;11.920;2023-11-22T08:41:27;5.50;63.80
60495;DHT22;46342;49.046;11.920;2023-11-22T08:43:54;5.50;63.80
60495;DHT22;46342;49.046;11.920;2023-11-22T08:46:19;5.60;63.50
60495;DHT22;46342;49.046;11.920;2023-11-22T08:48:45;5.60;63.90
60495;DHT22;46342;49.046;11.920;2023-11-22T08:51:11;5.60;63.90
60495;DHT22;46342;49.046;11.920;2023-11-22T08:53:38;5.60;63.90
60495;DHT22;46342;49.046;11.920;2023-11-22T08:56:03;5.60;63.90
60495;DHT22;46342;49.046;11.920;2023-11-22T08:58:31;5.60;63.80
60495;DHT22;46342;49.046;11.920;2023-11-22T09:00:57;5.60;63.80
60495;DHT22;46342;49.046;11.920;2023-11-22T09:03:25;5.60;63.90
60495;DHT22;46342;49.046;11.920;2023-11-22T09:05:52;5.60;63.80
60495;DHT22;46342;49.046;11.920;2023-11-22T09:08:19;5.60;63.60
60495;DHT22;46342;49.046;11.920;2023-11-22T09:10:46;5.60;63.70
60495;DHT22;46342;49.046;11.920;2023-11-22T09:13:12;5.60;63.80
60495;DHT22;46342;49.046;11.920;2023-11-22T09:15:42;5.60;63.70
60495;DHT22;46342;49.046;11.920;2023-11-22T09:18:10;5.60;63.80
60495;DHT22;46342;49.046;11.920;2023-11-22T09:20:35;5.60;63.90
60495;DHT22;46342;49.046;11.920;2023-11-22T09:23:01;5.60;63.90
60495;DHT22;46342;49.046;11.920;2023-11-22T09:25:27;5.60;63.90
60495;DHT22;46342;49.046;11.920;2023-11-22T09:27:55;5.60;63.90
60495;DHT22;46342;49.046;11.920;2023-11-22T09:30:26;5.60;63.70
60495;DHT22;46342;49.046;11.920;2023-11-22T09:33:08;5.70;63.60
60495;DHT22;46342;49.046;11.920;2023-11-22T09:35:35;5.70;64.50
60495;DHT22;46342;49.046;11.920;2023-11-22T09:38:02;5.70;63.80
60495;DHT22;46342;49.046;11.920;2023-11-22T09:40:29;5.70;63.60
60495;DHT22;46342;49.046;11.920;2023-11-22T09:42:58;5.70;63.60
60495;DHT22;46342;49.046;11.920;2023-11-22T09:45:23;5.70;63.60
60495;DHT22;46342;49.046;11.920;2023-11-22T09:47:50;5.70;63.50
60495;DHT22;46342;49.046;11.920;2023-11-22T09:51:28;5.70;64.20
60495;DHT22;46342;49.046;11.920;2023-11-22T09:53:40;5.70;62.90
60495;DHT22;46342;49.046;11.920;2023-11-22T09:56:07;5.70;63.20
60495;DHT22;46342;49.046;11.920;2023-11-22T09:58:35;5.60;63.20
60495;DHT22;46342;49.046;11.920;2023-11-22T10:01:03;5.60;63.40
60495;DHT22;46342;49.046;11.920;2023-11-22T10:03:33;5.60;63.60
60495;DHT22;46342;49.046;11.920;2023-11-22T10:05:59;5.60;63.70
60495;DHT22;46342;49.046;11.920;2023-11-22T10:08:28;5.60;63.80
60495;DHT22;46342;49.046;11.920;2023-11-22T10:10:55;5.70;63.80
60495;DHT22;46342;49.046;11.920;2023-11-22T10:13:22;5.70;63.80
60495;DHT22;46342;49.046;11.920;2023-11-22T10:15:48;5.70;63.70
60495;DHT22;46342;49.046;11.920;2023-11-22T10:18:14;5.70;63.70
60495;DHT22;46342;49.046;11.920;2023-11-22T10:20:41;5.70;63.70
60495;DHT22;46342;49.046;11.920;2023-11-22T10:23:09;5.70;63.60
60495;DHT22;46342;49.046;11.920;2023-11-22T10:25:46;5.70;63.60
60495;DHT22;46342;49.046;11.920;2023-11-22T10:28:22;5.70;63.60
60495;DHT22;46342;49.046;11.920;2023-11-22T10:30:49;5.70;63.40
60495;DHT22;46342;49.046;11.920;2023-11-22T10:33:17;5.80;62.90
60495;DHT22;46342;49.046;11.920;2023-11-22T10:35:47;5.70;63.00
60495;DHT22;46342;49.046;11.920;2023-11-22T10:38:21;5.70;62.80
60495;DHT22;46342;49.046;11.920;2023-11-22T10:40:47;5.70;63.10
60495;DHT22;46342;49.046;11.920;2023-11-22T10:43:14;5.70;63.30
60495;DHT22;46342;49.046;11.920;2023-11-22T10:45:41;5.70;63.40
60495;DHT22;46342;49.046;11.920;2023-11-22T10:48:13;5.70;63.50
60495;DHT22;46342;49.046;11.920;2023-11-22T10:50:41;5.70;63.20
60495;DHT22;46342;49.046;11.920;2023-11-22T10:53:11;5.60;63.00
60495;DHT22;46342;49.046;11.920;2023-11-22T10:55:42;5.70;63.00
60495;DHT22;46342;49.046;11.920;2023-11-22T10:58:10;5.60;62.80
60495;DHT22;46342;49.046;11.920;2023-11-22T11:00:40;5.60;62.90
60495;DHT22;46342;49.046;11.920;2023-11-22T11:03:18;5.60;63.90
60495;DHT22;46342;49.046;11.920;2023-11-22T11:06:02;5.60;63.20
60495;DHT22;46342;49.046;11.920;2023-11-22T11:08:30;5.60;63.10
60495;DHT22;46342;49.046;11.920;2023-11-22T11:10:57;5.60;63.40
60495;DHT22;46342;49.046;11.920;2023-11-22T11:13:24;5.60;63.30
60495;DHT22;46342;49.046;11.920;2023-11-22T11:15:51;5.60;63.40
60495;DHT22;46342;49.046;11.920;2023-11-22T11:18:18;5.60;63.30
60495;DHT22;46342;49.046;11.920;2023-11-22T11:20:50;5.60;63.30
60495;DHT22;46342;49.046;11.920;2023-11-22T11:23:19;5.60;63.00
60495;DHT22;46342;49.046;11.920;2023-11-22T11:25:49;5.60;63.10
60495;DHT22;46342;49.046;11.920;2023-11-22T11:28:14;5.60;62.80
60495;DHT22;46342;49.046;11.920;2023-11-22T11:30:47;5.60;62.70
60495;DHT22;46342;49.046;11.920;2023-11-22T11:33:27;5.60;62.50
60495;DHT22;46342;49.046;11.920;2023-11-22T11:35:57;5.60;62.50
60495;DHT22;46342;49.046;11.920;2023-11-22T11:38:31;5.50;62.40
60495;DHT22;46342;49.046;11.920;2023-11-22T11:41:10;5.50;62.10
60495;DHT22;46342;49.046;11.920;2023-11-22T11:43:46;5.50;62.00
60495;DHT22;46342;49.046;11.920;2023-11-22T11:46:16;5.50;61.70
60495;DHT22;46342;49.046;11.920;2023-11-22T11:48:47;5.50;61.90
60495;DHT22;46342;49.046;11.920;2023-11-22T11:51:14;5.50;61.60
60495;DHT22;46342;49.046;11.920;2023-11-22T11:53:40;5.40;61.70
60495;DHT22;46342;49.046;11.920;2023-11-22T11:56:07;5.40;61.80
60495;DHT22;46342;49.046;11.920;2023-11-22T11:58:32;5.40;61.70
60495;DHT22;46342;49.046;11.920;2023-11-22T12:00:58;5.40;61.90
60495;DHT22;46342;49.046;11.920;2023-11-22T12:03:24;5.30;61.70
60495;DHT22;46342;49.046;11.920;2023-11-22T12:05:50;5.30;61.80
60495;DHT22;46342;49.046;11.920;2023-11-22T12:08:15;5.30;62.00
60495;DHT22;46342;49.046;11.920;2023-11-22T12:10:42;5.30;62.10
60495;DHT22;46342;49.046;11.920;2023-11-22T12:13:08;5.20;62.00
60495;DHT22;46342;49.046;11.920;2023-11-22T12:15:34;5.30;62.30
60495;DHT22;46342;49.046;11.920;2023-11-22T12:18:01;5.20;62.30
60495;DHT22;46342;49.046;11.920;2023-11-22T12:20:27;5.30;62.60
60495;DHT22;46342;49.046;11.920;2023-11-22T12:22:57;5.20;62.50
60495;DHT22;46342;49.046;11.920;2023-11-22T12:25:25;5.20;62.30
60495;DHT22;46342;49.046;11.920;2023-11-22T12:27:54;5.20;62.40
60495;DHT22;46342;49.046;11.920;2023-11-22T12:30:33;5.20;62.80
60495;DHT22;46342;49.046;11.920;2023-11-22T12:33:06;5.30;62.20
60495;DHT22;46342;49.046;11.920;2023-11-22T12:35:35;5.30;62.10
60495;DHT22;46342;49.046;11.920;2023-11-22T12:38:02;5.30;62.20
60495;DHT22;46342;49.046;11.920;2023-11-22T12:40:29;5.30;62.20
60495;DHT22;46342;49.046;11.920;2023-11-22T12:42:59;5.20;62.10
60495;DHT22;46342;49.046;11.920;2023-11-22T12:45:27;5.30;62.50
60495;DHT22;46342;49.046;11.920;2023-11-22T12:47:57;5.30;62.50
60495;DHT22;46342;49.046;11.920;2023-11-22T12:50:43;5.30;61.80
60495;DHT22;46342;49.046;11.920;2023-11-22T12:53:13;5.30;61.60
60495;DHT22;46342;49.046;11.920;2023-11-22T12:58:12;5.30;62.00
60495;DHT22;46342;49.046;11.920;2023-11-22T13:00:41;5.20;62.10
60495;DHT22;46342;49.046;11.920;2023-11-22T13:03:08;5.30;63.30
60495;DHT22;46342;49.046;11.920;2023-11-22T13:05:39;5.20;62.30
60495;DHT22;46342;49.046;11.920;2023-11-22T13:08:05;5.20;62.30
60495;DHT22;46342;49.046;11.920;2023-11-22T13:10:31;5.30;62.40
60495;DHT22;46342;49.046;11.920;2023-11-22T13:12:57;5.30;62.20
60495;DHT22;46342;49.046;11.920;2023-11-22T13:15:23;5.30;62.20
60495;DHT22;46342;49.046;11.920;2023-11-22T13:17:55;5.30;62.40
60495;DHT22;46342;49.046;11.920;2023-11-22T13:20:25;5.30;62.20
60495;DHT22;46342;49.046;11.920;2023-11-22T13:22:54;5.30;62.50
60495;DHT22;46342;49.046;11.920;2023-11-22T13:25:23;5.30;62.60
60495;DHT22;46342;49.046;11.920;2023-11-22T13:27:50;5.30;62.50
60495;DHT22;46342;49.046;11.920;2023-11-22T13:30:16;5.30;62.50
60495;DHT22;46342;49.046;11.920;2023-11-22T13:32:51;5.40;62.60
60495;DHT22;46342;49.046;11.920;2023-11-22T13:35:17;5.40;62.40
60495;DHT22;46342;49.046;11.920;2023-11-22T13:37:47;5.40;62.50
60495;DHT22;46342;49.046;11.920;2023-11-22T13:40:17;5.40;62.60
60495;DHT22;46342;49.046;11.920;2023-11-22T13:42:48;5.40;62.40
60495;DHT22;46342;49.046;11.920;2023-11-22T13:45:16;5.40;62.40
60495;DHT22;46342;49.046;11.920;2023-11-22T13:47:47;5.40;62.30
60495;DHT22;46342;49.046;11.920;2023-11-22T13:50:14;5.40;62.10
60495;DHT22;46342;49.046;11.920;2023-11-22T13:52:45;5.50;62.10
60495;DHT22;46342;49.046;11.920;2023-11-22T13:55:11;5.50;62.00
60495;DHT22;46342;49.046;11.920;2023-11-22T13:57:38;5.40;61.90
60495;DHT22;46342;49.046;11.920;2023-11-22T14:00:08;5.40;61.90
60495;DHT22;46342;49.046;11.920;2023-11-22T14:02:51;5.50;61.90
60495;DHT22;46342;49.046;11.920;2023-11-22T14:05:17;5.50;61.90
60495;DHT22;46342;49.046;11.920;2023-11-22T14:07:43;5.40;61.90
60495;DHT22;46342;49.046;11.920;2023-11-22T14:10:10;5.40;61.70
60495;DHT22;46342;49.046;11.920;2023-11-22T14:12:36;5.50;61.90
60495;DHT22;46342;49.046;11.920;2023-11-22T14:15:03;5.40;61.80
60495;DHT22;46342;49.046;11.920;2023-11-22T14:17:32;5.50;61.60
60495;DHT22;46342;49.046;11.920;2023-11-22T14:19:58;5.40;61.50
60495;DHT22;46342;49.046;11.920;2023-11-22T14:22:24;5.40;61.40
60495;DHT22;46342;49.046;11.920;2023-11-22T14:24:50;5.40;61.50
60495;DHT22;46342;49.046;11.920;2023-11-22T14:27:19;5.40;61.40
60495;DHT22;46342;49.046;11.920;2023-11-22T14:29:48;5.40;61.40
60495;DHT22;46342;49.046;11.920;2023-11-22T14:32:15;5.40;61.40
60495;DHT22;46342;49.046;11.920;2023-11-22T14:34:42;5.40;61.50
60495;DHT22;46342;49.046;11.920;2023-11-22T14:37:09;5.40;61.70
60495;DHT22;46342;49.046;11.920;2023-11-22T14:39:35;5.40;61.70
60495;DHT22;46342;49.046;11.920;2023-11-22T14:42:01;5.40;61.70
60495;DHT22;46342;49.046;11.920;2023-11-22T14:44:26;5.40;61.80
60495;DHT22;46342;49.046;11.920;2023-11-22T14:46:52;5.40;62.70
60495;DHT22;46342;49.046;11.920;2023-11-22T14:49:17;5.40;61.80
60495;DHT22;46342;49.046;11.920;2023-11-22T14:51:44;5.40;61.90
60495;DHT22;46342;49.046;11.920;2023-11-22T14:54:10;5.40;62.90
60495;DHT22;46342;49.046;11.920;2023-11-22T14:56:35;5.40;61.90
60495;DHT22;46342;49.046;11.920;2023-11-22T14:59:02;5.40;61.70
60495;DHT22;46342;49.046;11.920;2023-11-22T15:01:28;5.40;61.60
60495;DHT22;46342;49.046;11.920;2023-11-22T15:03:54;5.40;61.50
60495;DHT22;46342;49.046;11.920;2023-11-22T15:06:20;5.40;61.40
60495;DHT22;46342;49.046;11.920;2023-11-22T15:08:46;5.40;61.40
60495;DHT22;46342;49.046;11.920;2023-11-22T15:11:13;5.40;61.40
60495;DHT22;46342;49.046;11.920;2023-11-22T15:13:44;5.40;61.40
60495;DHT22;46342;49.046;11.920;2023-11-22T15:16:10;5.40;61.50
60495;DHT22;46342;49.046;11.920;2023-11-22T15:18:41;5.40;61.60
60495;DHT22;46342;49.046;11.920;2023-11-22T15:21:07;5.40;61.70
60495;DHT22;46342;49.046;11.920;2023-11-22T15:23:33;5.40;61.80
60495;DHT22;46342;49.046;11.920;2023-11-22T15:25:58;5.40;61.70
60495;DHT22;46342;49.046;11.920;2023-11-22T15:28:24;5.40;61.70
60495;DHT22;46342;49.046;11.920;2023-11-22T15:30:51;5.40;61.60
60495;DHT22;46342;49.046;11.920;2023-11-22T15:33:23;5.40;61.60